createdAt,value
2023-12-29T00:03:21.704Z,7.65
2023-12-29T00:08:37.614Z,7.56
2023-12-29T00:13:41.702Z,7.58
2023-12-29T00:18:45.403Z,7.50
2023-12-29T00:23:48.931Z,7.39
2023-12-29T00:28:51.844Z,7.40
2023-12-29T00:33:56.433Z,7.34
2023-12-29T00:39:04.154Z,7.23
2023-12-29T00:44:07.020Z,7.20
2023-12-29T00:49:12.340Z,7.17
2023-12-29T00:54:17.553Z,7.10
2023-12-29T00:59:23.198Z,7.08
2023-12-29T01:04:28.221Z,7.00
2023-12-29T01:09:36.138Z,6.85
2023-12-29T01:14:41.253Z,6.68
2023-12-29T01:19:44.471Z,6.54
2023-12-29T01:24:48.545Z,6.51
2023-12-29T01:29:51.572Z,6.44
2023-12-29T01:34:57.816Z,6.31
2023-12-29T01:40:03.395Z,6.25
2023-12-29T01:45:07.867Z,6.26
2023-12-29T01:50:20.633Z,6.41
2023-12-29T01:55:26.082Z,6.40
2023-12-29T02:00:35.082Z,6.35
2023-12-29T02:05:37.813Z,6.20
2023-12-29T02:10:42.480Z,6.07
2023-12-29T02:15:45.944Z,5.92
2023-12-29T02:20:49.455Z,5.77
2023-12-29T02:25:52.510Z,5.66
2023-12-29T02:30:56.744Z,5.61
2023-12-29T02:36:00.705Z,5.50
2023-12-29T02:41:06.802Z,5.61
2023-12-29T02:46:09.922Z,5.87
2023-12-29T02:51:13.149Z,6.16
2023-12-29T02:56:16.248Z,6.36
2023-12-29T03:01:21.096Z,6.64
2023-12-29T03:06:24.508Z,6.80
2023-12-29T03:11:27.495Z,6.84
2023-12-29T03:16:34.941Z,6.80
2023-12-29T03:21:40.804Z,6.79
2023-12-29T03:26:44.530Z,6.80
2023-12-29T03:31:49.069Z,6.70
2023-12-29T03:36:53.476Z,6.59
2023-12-29T03:41:58.883Z,6.62
2023-12-29T03:47:03.715Z,6.67
2023-12-29T03:52:09.225Z,6.72
2023-12-29T03:57:15.548Z,6.87
2023-12-29T04:02:25.510Z,7.10
2023-12-29T04:07:28.106Z,7.32
2023-12-29T04:12:37.178Z,7.59
2023-12-29T04:17:42.262Z,7.79
2023-12-29T04:22:46.288Z,7.95
2023-12-29T04:27:49.419Z,8.01
2023-12-29T04:32:53.805Z,8.09
2023-12-29T04:37:57.102Z,8.10
2023-12-29T04:43:00.837Z,8.12
2023-12-29T04:48:04.762Z,8.18
2023-12-29T04:53:10.826Z,8.28
2023-12-29T04:58:13.702Z,8.27
2023-12-29T05:03:22.736Z,8.29
2023-12-29T05:08:27.167Z,8.32
2023-12-29T05:13:30.712Z,8.37
2023-12-29T05:18:34.058Z,8.44
2023-12-29T05:23:44.236Z,8.38
2023-12-29T05:28:50.829Z,8.44
2023-12-29T05:33:53.694Z,8.54
2023-12-29T05:38:56.696Z,8.59
2023-12-29T05:44:02.826Z,8.60
2023-12-29T05:49:11.981Z,8.60
2023-12-29T05:54:16.431Z,8.51
2023-12-29T05:59:25.251Z,8.56
2023-12-29T06:04:28.147Z,8.60
2023-12-29T06:09:30.844Z,8.59
2023-12-29T06:14:35.067Z,8.50
2023-12-29T06:19:38.910Z,8.62
2023-12-29T06:24:45.788Z,8.55
2023-12-29T06:29:49.131Z,8.49
2023-12-29T06:34:57.340Z,8.49
2023-12-29T06:40:00.306Z,8.46
2023-12-29T06:45:09.589Z,8.38
2023-12-29T06:50:14.055Z,8.38
2023-12-29T06:55:19.590Z,8.44
2023-12-29T07:00:27.515Z,8.52
2023-12-29T07:05:47.305Z,8.55
2023-12-29T07:10:52.006Z,8.44
2023-12-29T07:15:55.299Z,8.51
2023-12-29T07:20:58.500Z,8.58
2023-12-29T07:26:04.774Z,8.66
2023-12-29T07:31:14.671Z,8.66
2023-12-29T07:36:19.763Z,8.71
2023-12-29T07:41:24.922Z,8.68
2023-12-29T07:46:28.756Z,8.69
2023-12-29T07:51:32.775Z,8.69
2023-12-29T07:56:38.004Z,8.69
2023-12-29T08:01:51.102Z,8.69
2023-12-29T08:06:55.223Z,8.64
2023-12-29T08:12:04.764Z,8.69
2023-12-29T08:17:10.304Z,8.76
2023-12-29T08:22:22.436Z,8.77
2023-12-29T08:27:31.306Z,8.70
2023-12-29T08:32:36.156Z,8.68
2023-12-29T08:37:38.898Z,8.70
2023-12-29T08:42:44.066Z,8.71
2023-12-29T08:47:46.827Z,8.74
2023-12-29T08:52:55.131Z,8.73
2023-12-29T08:58:00.899Z,8.71
2023-12-29T09:03:08.791Z,8.79
2023-12-29T09:08:14.745Z,8.89
2023-12-29T09:13:20.160Z,9.01
2023-12-29T09:18:24.737Z,9.21
2023-12-29T09:23:27.533Z,9.54
2023-12-29T09:28:31.586Z,9.82
2023-12-29T09:33:39.415Z,9.95
2023-12-29T09:38:42.863Z,9.87
2023-12-29T09:43:49.584Z,9.94
2023-12-29T09:48:53.813Z,9.95
2023-12-29T09:53:59.936Z,9.85
2023-12-29T09:59:05.078Z,9.93
2023-12-29T10:04:07.884Z,9.94
2023-12-29T10:09:11.987Z,10.03
2023-12-29T10:14:17.569Z,9.73
2023-12-29T10:19:22.587Z,9.68
2023-12-29T10:24:34.431Z,9.51
2023-12-29T10:29:39.202Z,9.51
2023-12-29T10:34:48.508Z,9.52
2023-12-29T10:39:51.620Z,9.61
2023-12-29T10:44:54.410Z,9.74
2023-12-29T10:49:58.245Z,9.83
2023-12-29T10:55:01.259Z,9.95
2023-12-29T11:00:04.842Z,10.06
2023-12-29T11:05:08.839Z,10.10
2023-12-29T11:10:12.074Z,10.14
2023-12-29T11:15:17.747Z,10.25
2023-12-29T11:20:21.391Z,10.25
2023-12-29T11:25:26.934Z,10.24
2023-12-29T11:30:30.001Z,10.37
2023-12-29T11:35:36.173Z,10.42
2023-12-29T11:40:46.282Z,10.52
2023-12-29T11:45:55.334Z,10.49
2023-12-29T11:50:59.349Z,10.59
2023-12-29T11:56:02.213Z,10.62
2023-12-29T12:01:05.431Z,10.55
2023-12-29T12:06:11.321Z,10.73
2023-12-29T12:11:14.259Z,10.91
2023-12-29T12:16:16.997Z,10.95
2023-12-29T12:21:26.965Z,11.03
2023-12-29T12:26:34.200Z,11.17
2023-12-29T12:31:38.516Z,11.21
2023-12-29T12:36:46.569Z,11.11
2023-12-29T12:41:50.594Z,11.19
2023-12-29T12:46:56.802Z,11.17
2023-12-29T12:52:00.690Z,11.25
2023-12-29T12:57:03.305Z,11.31
2023-12-29T13:02:07.107Z,11.31
2023-12-29T13:07:11.160Z,11.16
2023-12-29T13:12:14.785Z,11.24
2023-12-29T13:17:19.305Z,11.15
2023-12-29T13:22:23.239Z,11.02
2023-12-29T13:27:30.603Z,10.93
2023-12-29T13:32:41.346Z,10.82
2023-12-29T13:43:15.433Z,10.67
2023-12-29T13:48:19.369Z,10.64
2023-12-29T13:53:23.895Z,10.66
2023-12-29T13:58:38.402Z,10.57
2023-12-29T14:03:41.787Z,10.46
2023-12-29T14:08:45.014Z,10.40
2023-12-29T14:13:49.310Z,10.33
2023-12-29T14:24:00.792Z,10.21
2023-12-29T14:29:04.338Z,10.14
2023-12-29T14:34:23.792Z,10.13
2023-12-29T14:39:27.698Z,9.96
2023-12-29T14:44:33.980Z,9.90
2023-12-29T14:49:41.664Z,9.86
2023-12-29T14:54:46.473Z,9.74
2023-12-29T14:59:50.974Z,9.66
2023-12-29T15:04:56.668Z,9.61
2023-12-29T15:09:59.852Z,9.49
2023-12-29T15:15:04.528Z,9.42
2023-12-29T15:20:16.840Z,9.28
2023-12-29T15:25:22.705Z,9.18
2023-12-29T15:30:27.309Z,9.15
2023-12-29T15:35:30.283Z,9.08
2023-12-29T15:40:38.999Z,9.02
2023-12-29T15:45:42.035Z,8.97
2023-12-29T15:50:45.039Z,8.95
2023-12-29T15:55:49.905Z,8.87
2023-12-29T16:00:56.270Z,8.75
2023-12-29T16:06:02.165Z,8.69
2023-12-29T16:11:07.644Z,8.71
2023-12-29T16:16:13.521Z,8.74
2023-12-29T16:21:16.427Z,8.70
2023-12-29T16:26:31.069Z,8.64
2023-12-29T16:31:39.549Z,8.56
2023-12-29T16:36:46.404Z,8.50
2023-12-29T16:41:50.633Z,8.46
2023-12-29T16:46:55.091Z,8.44
2023-12-29T16:52:01.283Z,8.39
2023-12-29T16:57:07.433Z,8.28
2023-12-29T17:02:17.255Z,8.22
2023-12-29T17:07:20.357Z,8.08
2023-12-29T17:12:26.417Z,8.12
2023-12-29T17:17:30.619Z,8.04
2023-12-29T17:22:36.025Z,7.96
2023-12-29T17:27:42.629Z,7.97
2023-12-29T17:32:49.056Z,7.93
2023-12-29T17:37:53.400Z,7.83
2023-12-29T17:43:01.211Z,7.75
2023-12-29T17:48:08.957Z,7.67
2023-12-29T17:53:13.101Z,7.64
2023-12-29T17:58:20.961Z,7.60
2023-12-29T18:03:23.997Z,7.47
2023-12-29T18:08:27.146Z,7.40
2023-12-29T18:13:32.938Z,7.31
2023-12-29T18:18:35.793Z,7.24
2023-12-29T18:23:38.624Z,7.15
2023-12-29T18:28:46.396Z,7.10
2023-12-29T18:33:54.975Z,7.18
2023-12-29T18:38:58.307Z,7.23
2023-12-29T18:44:04.138Z,7.10
2023-12-29T18:49:14.828Z,7.04
2023-12-29T18:54:20.475Z,7.16
2023-12-29T18:59:25.891Z,7.24
2023-12-29T19:04:38.257Z,7.38
2023-12-29T19:09:44.041Z,7.38
2023-12-29T19:14:54.722Z,7.38
2023-12-29T19:19:58.914Z,7.35
2023-12-29T19:25:06.375Z,7.36
2023-12-29T19:30:11.974Z,7.35
2023-12-29T19:35:16.244Z,7.38
2023-12-29T19:40:27.444Z,7.36
2023-12-29T19:45:34.441Z,7.45
2023-12-29T19:50:40.246Z,7.58
2023-12-29T19:55:44.383Z,7.68
2023-12-29T20:06:04.682Z,7.88
2023-12-29T20:11:07.885Z,8.01
2023-12-29T20:16:11.257Z,8.06
2023-12-29T20:21:16.327Z,8.10
2023-12-29T20:26:20.511Z,8.08
2023-12-29T20:31:26.076Z,8.08
2023-12-29T20:36:30.042Z,8.07
2023-12-29T20:41:36.681Z,8.03
2023-12-29T20:46:46.079Z,7.96
2023-12-29T20:51:55.121Z,8.08
2023-12-29T20:56:58.074Z,8.08
2023-12-29T21:02:06.301Z,8.06
2023-12-29T21:07:11.560Z,8.16
2023-12-29T21:12:16.793Z,8.22
2023-12-29T21:17:20.830Z,8.24
2023-12-29T21:22:28.166Z,8.23
2023-12-29T21:27:32.438Z,8.06
2023-12-29T21:32:41.663Z,8.12
2023-12-29T21:37:49.761Z,8.07
2023-12-29T21:42:57.213Z,8.13
2023-12-29T21:48:02.089Z,8.08
2023-12-29T21:53:08.522Z,8.07
2023-12-29T21:58:24.255Z,8.00
2023-12-29T22:03:32.053Z,7.94
2023-12-29T22:08:41.439Z,7.88
2023-12-29T22:13:44.906Z,7.84
2023-12-29T22:18:54.078Z,7.83
2023-12-29T22:23:58.427Z,7.81
2023-12-29T22:34:21.602Z,7.82
2023-12-29T22:39:27.550Z,7.80
2023-12-29T22:44:31.989Z,7.86
2023-12-29T22:49:35.562Z,7.84
2023-12-29T22:54:38.587Z,7.87
2023-12-29T22:59:43.167Z,7.92
2023-12-29T23:04:46.740Z,8.09
2023-12-29T23:09:50.791Z,8.14
2023-12-29T23:14:54.600Z,8.07
2023-12-29T23:19:58.106Z,7.92
2023-12-29T23:25:07.013Z,7.86
2023-12-29T23:30:13.640Z,8.00
2023-12-29T23:35:23.466Z,8.05
2023-12-29T23:40:28.829Z,7.98
2023-12-29T23:45:31.949Z,7.97
2023-12-29T23:50:36.553Z,8.11
2023-12-29T23:55:40.774Z,8.17
